Time;durP1;ratioP1;P1;durP2;ratioP2;P2;SDS_P1;SDS_P2;PMS_P1;PMS_P2;Temp;Humidity;BMP_temperature;BMP_pressure;BME280_temperature;BME280_humidity;BME280_pressure;Samples;Min_cycle;Max_cycle;Signal;HPM_P1;HPM_P2
2022/09/11 00:01:15;;;;;;;3.72;1.00;;;;;;;;;;4787369;30;20513;-64
2022/09/11 00:03:43;;;;;;;7.93;0.90;;;;;;;;;;4785987;30;20032;-64
2022/09/11 00:06:12;;;;;;;4.30;0.73;;;;;;;;;;4787487;29;20088;-64
2022/09/11 00:08:39;;;;;;;1.95;0.70;;;;;;;;;;4787033;30;20062;-64
2022/09/11 00:11:08;;;;;;;4.40;1.20;;;;;;;;;;4786553;30;20062;-64
2022/09/11 00:13:35;;;;;;;1.95;0.75;;;;;;;;;;4787094;30;20047;-64
2022/09/11 00:16:02;;;;;;;5.05;0.80;;;;;;;;;;4787258;30;20057;-64
2022/09/11 00:18:28;;;;;;;1.50;0.77;;;;;;;;;;4786024;30;20047;-64
2022/09/11 00:20:56;;;;;;;1.48;0.57;;;;;;;;;;4787052;30;20034;-64
2022/09/11 00:23:23;;;;;;;3.67;0.80;;;;;;;;;;4786705;30;20020;-64
2022/09/11 00:25:50;;;;;;;2.45;0.77;;;;;;;;;;4787073;30;20039;-64
2022/09/11 00:28:18;;;;;;;1.88;0.57;;;;;;;;;;4786895;30;20396;-65
2022/09/11 00:30:45;;;;;;;3.22;0.85;;;;;;;;;;4787009;29;20034;-64
2022/09/11 00:33:12;;;;;;;3.15;0.90;;;;;;;;;;4786933;30;20501;-64
2022/09/11 00:35:40;;;;;;;3.38;1.10;;;;;;;;;;4786882;30;20031;-64
2022/09/11 00:38:10;;;;;;;5.72;1.00;;;;;;;;;;4786721;30;20401;-64
2022/09/11 00:40:46;;;;;;;4.67;0.90;;;;;;;;;;4787171;30;20027;-64
2022/09/11 00:43:15;;;;;;;3.85;0.70;;;;;;;;;;4786945;30;20041;-64
2022/09/11 00:45:42;;;;;;;6.38;0.70;;;;;;;;;;4786817;30;20020;-64
2022/09/11 00:48:08;;;;;;;3.22;0.82;;;;;;;;;;4786813;30;20046;-64
2022/09/11 00:50:35;;;;;;;5.20;0.75;;;;;;;;;;4786855;30;20027;-64
2022/09/11 00:53:06;;;;;;;4.57;1.15;;;;;;;;;;4786654;30;20039;-64
2022/09/11 00:55:36;;;;;;;2.20;0.85;;;;;;;;;;4786670;30;20474;-64
2022/09/11 00:58:07;;;;;;;2.95;0.90;;;;;;;;;;4785676;29;20047;-64
2022/09/11 01:00:34;;;;;;;1.92;0.70;;;;;;;;;;4786946;30;20027;-64
2022/09/11 01:03:02;;;;;;;4.18;0.85;;;;;;;;;;4786970;30;20023;-64
2022/09/11 01:05:33;;;;;;;5.20;1.27;;;;;;;;;;4786082;29;20383;-64
2022/09/11 01:08:02;;;;;;;5.65;1.05;;;;;;;;;;4786732;29;20028;-64
2022/09/11 01:10:56;;;;;;;2.85;0.90;;;;;;;;;;4786746;30;20032;-64
2022/09/11 01:13:42;;;;;;;1.98;0.90;;;;;;;;;;4786876;30;20043;-64
2022/09/11 01:16:35;;;;;;;5.13;0.88;;;;;;;;;;4786354;30;20039;-64
2022/09/11 01:19:05;;;;;;;2.65;0.80;;;;;;;;;;4786422;30;20069;-64
2022/09/11 01:21:50;;;;;;;1.80;0.70;;;;;;;;;;4786517;29;20024;-64
2022/09/11 01:24:35;;;;;;;2.22;0.88;;;;;;;;;;4788579;29;20057;-64
2022/09/11 01:27:20;;;;;;;4.10;1.40;;;;;;;;;;4789703;30;20019;-64
2022/09/11 01:30:06;;;;;;;5.20;1.15;;;;;;;;;;4789776;30;20035;-64
2022/09/11 01:32:47;;;;;;;3.38;0.95;;;;;;;;;;4789673;30;20509;-64
2022/09/11 01:35:37;;;;;;;6.00;1.02;;;;;;;;;;4789386;30;20060;-64
2022/09/11 01:38:04;;;;;;;5.13;1.00;;;;;;;;;;4791394;29;20035;-64
2022/09/11 01:40:39;;;;;;;2.92;1.00;;;;;;;;;;4789622;29;20027;-64
2022/09/11 01:43:12;;;;;;;3.10;1.10;;;;;;;;;;4789458;29;20028;-64
2022/09/11 01:45:41;;;;;;;3.67;0.93;;;;;;;;;;4789424;30;20481;-64
2022/09/11 01:48:08;;;;;;;3.00;1.05;;;;;;;;;;4789593;30;20066;-64
2022/09/11 01:50:36;;;;;;;5.63;1.02;;;;;;;;;;4789174;30;20035;-65
2022/09/11 01:53:04;;;;;;;4.00;0.93;;;;;;;;;;4789466;29;20032;-64
2022/09/11 01:55:34;;;;;;;10.60;1.00;;;;;;;;;;4788137;30;20039;-64
2022/09/11 01:58:21;;;;;;;2.97;0.90;;;;;;;;;;4789560;29;20045;-64
2022/09/11 02:00:50;;;;;;;2.38;0.88;;;;;;;;;;4789423;30;20031;-64
2022/09/11 02:03:21;;;;;;;6.35;1.10;;;;;;;;;;4788933;29;20525;-62
2022/09/11 02:05:53;;;;;;;3.05;0.95;;;;;;;;;;4789024;29;20035;-64
2022/09/11 02:08:22;;;;;;;1.75;0.95;;;;;;;;;;4789209;29;20055;-64
2022/09/11 02:10:55;;;;;;;2.08;0.80;;;;;;;;;;4789035;30;20027;-64
2022/09/11 02:13:28;;;;;;;1.83;0.80;;;;;;;;;;4789286;29;20043;-64
2022/09/11 02:15:57;;;;;;;4.03;0.90;;;;;;;;;;4788983;29;20379;-64
2022/09/11 02:18:32;;;;;;;7.57;1.10;;;;;;;;;;4788511;30;20039;-64
2022/09/11 02:20:58;;;;;;;7.88;1.15;;;;;;;;;;4788891;30;20037;-64
2022/09/11 02:23:24;;;;;;;2.22;1.00;;;;;;;;;;4788878;29;20508;-64
2022/09/11 02:25:51;;;;;;;4.13;0.90;;;;;;;;;;4788907;29;20459;-64
2022/09/11 02:28:17;;;;;;;4.25;1.00;;;;;;;;;;4789142;30;20027;-64
2022/09/11 02:30:43;;;;;;;1.98;0.77;;;;;;;;;;4789016;30;20039;-64
2022/09/11 02:33:28;;;;;;;3.63;0.68;;;;;;;;;;4788411;30;20038;-64
2022/09/11 02:35:56;;;;;;;3.47;0.70;;;;;;;;;;4788316;29;20049;-64
2022/09/11 02:38:29;;;;;;;1.50;0.77;;;;;;;;;;4788628;30;20366;-64
2022/09/11 02:41:02;;;;;;;3.50;0.70;;;;;;;;;;4788627;29;20031;-64
2022/09/11 02:43:37;;;;;;;5.45;0.85;;;;;;;;;;4788855;30;20030;-64
2022/09/11 02:46:22;;;;;;;1.88;0.85;;;;;;;;;;4788500;30;20102;-64
2022/09/11 02:48:51;;;;;;;1.58;0.70;;;;;;;;;;4788132;30;20035;-64
2022/09/11 02:51:36;;;;;;;4.18;0.80;;;;;;;;;;4788491;30;20023;-64
2022/09/11 02:54:22;;;;;;;5.07;0.90;;;;;;;;;;4788566;30;20031;-64
2022/09/11 02:56:52;;;;;;;2.65;0.90;;;;;;;;;;4788277;30;20051;-64
2022/09/11 02:59:23;;;;;;;3.13;0.85;;;;;;;;;;4788344;29;20027;-64
2022/09/11 03:01:50;;;;;;;;;;;;;;;;;;4788282;30;20031;-64
2022/09/11 03:04:17;;;;;;;3.55;0.77;;;;;;;;;;4788165;30;20331;-64
2022/09/11 03:06:44;;;;;;;1.52;0.80;;;;;;;;;;4788485;30;20041;-64
2022/09/11 03:09:10;;;;;;;3.13;1.10;;;;;;;;;;4788451;30;20031;-64
2022/09/11 03:11:37;;;;;;;3.15;1.13;;;;;;;;;;4787854;30;20557;-64
2022/09/11 03:14:13;;;;;;;1.63;1.08;;;;;;;;;;4786865;29;20042;-64
2022/09/11 03:16:40;;;;;;;2.90;1.00;;;;;;;;;;4787660;30;20051;-64
2022/09/11 03:19:06;;;;;;;1.90;0.73;;;;;;;;;;4787839;30;20050;-64
2022/09/11 03:21:33;;;;;;;2.33;0.88;;;;;;;;;;4788154;30;20043;-64
2022/09/11 03:24:00;;;;;;;4.15;1.15;;;;;;;;;;4788559;30;20026;-64
2022/09/11 03:26:28;;;;;;;2.30;0.80;;;;;;;;;;4787889;30;20031;-64
2022/09/11 03:28:54;;;;;;;1.08;0.80;;;;;;;;;;4787702;30;20050;-64
2022/09/11 03:31:21;;;;;;;3.60;1.00;;;;;;;;;;4787690;30;20057;-64
2022/09/11 03:33:47;;;;;;;2.85;0.90;;;;;;;;;;4787614;30;20031;-64
2022/09/11 03:36:14;;;;;;;2.55;1.08;;;;;;;;;;4787766;30;20379;-65
2022/09/11 03:38:40;;;;;;;4.03;0.80;;;;;;;;;;4788145;30;20049;-64
2022/09/11 03:41:08;;;;;;;3.92;0.95;;;;;;;;;;4787563;30;20031;-64
2022/09/11 03:43:34;;;;;;;2.65;1.10;;;;;;;;;;4787590;30;20030;-64
2022/09/11 03:46:01;;;;;;;3.90;1.00;;;;;;;;;;4786747;30;20031;-64
2022/09/11 03:48:28;;;;;;;1.67;0.80;;;;;;;;;;4787433;30;20043;-64
2022/09/11 03:50:54;;;;;;;1.65;0.80;;;;;;;;;;4787388;30;20031;-64
2022/09/11 03:53:21;;;;;;;2.75;1.08;;;;;;;;;;4786502;30;20031;-64
2022/09/11 03:55:48;;;;;;;5.18;0.85;;;;;;;;;;4787532;30;20034;-64
2022/09/11 03:58:17;;;;;;;2.45;0.90;;;;;;;;;;4787353;30;20405;-64
2022/09/11 04:00:43;;;;;;;3.47;0.95;;;;;;;;;;4787141;29;20019;-64
2022/09/11 04:03:10;;;;;;;3.88;0.80;;;;;;;;;;4787499;30;20042;-64
2022/09/11 04:05:37;;;;;;;5.82;1.10;;;;;;;;;;4787016;29;20027;-64
2022/09/11 04:08:04;;;;;;;2.83;0.80;;;;;;;;;;4786207;29;20091;-64
2022/09/11 04:10:31;;;;;;;1.17;0.88;;;;;;;;;;4787192;29;20039;-64
2022/09/11 04:12:58;;;;;;;1.88;0.80;;;;;;;;;;4787048;30;20505;-64
2022/09/11 04:15:24;;;;;;;3.92;0.70;;;;;;;;;;4786947;30;20046;-64
2022/09/11 04:17:51;;;;;;;1.35;0.68;;;;;;;;;;4786997;29;20521;-64
2022/09/11 04:20:17;;;;;;;2.25;0.90;;;;;;;;;;4787059;29;20039;-64
2022/09/11 04:22:44;;;;;;;3.08;0.75;;;;;;;;;;4787298;30;20027;-64
2022/09/11 04:25:11;;;;;;;4.45;1.00;;;;;;;;;;4787015;30;20032;-64
2022/09/11 04:27:44;;;;;;;3.30;1.00;;;;;;;;;;4785943;30;20035;-64
2022/09/11 04:30:10;;;;;;;1.48;1.00;;;;;;;;;;4786608;30;20363;-64
2022/09/11 04:32:37;;;;;;;1.42;0.77;;;;;;;;;;4786971;30;20504;-64
2022/09/11 04:35:03;;;;;;;3.47;0.82;;;;;;;;;;4787556;30;20027;-64
2022/09/11 04:37:29;;;;;;;2.28;0.88;;;;;;;;;;4786831;29;20055;-64
2022/09/11 04:39:56;;;;;;;2.60;1.02;;;;;;;;;;4786889;29;20035;-64
2022/09/11 04:42:22;;;;;;;5.32;1.02;;;;;;;;;;4786757;30;20027;-64
2022/09/11 04:44:48;;;;;;;1.25;0.77;;;;;;;;;;4786791;30;20031;-64
2022/09/11 04:47:15;;;;;;;2.33;0.80;;;;;;;;;;4787016;29;20031;-64
2022/09/11 04:49:41;;;;;;;3.28;0.90;;;;;;;;;;4786939;30;20036;-64
2022/09/11 04:52:08;;;;;;;3.13;0.70;;;;;;;;;;4786855;30;20048;-64
2022/09/11 04:54:35;;;;;;;2.42;0.80;;;;;;;;;;4786741;30;20515;-64
2022/09/11 04:57:03;;;;;;;2.38;0.90;;;;;;;;;;4787237;29;20153;-64
2022/09/11 04:59:29;;;;;;;4.90;0.95;;;;;;;;;;4790295;30;20019;-64
2022/09/11 05:01:55;;;;;;;2.03;0.90;;;;;;;;;;4790486;30;20046;-64
2022/09/11 05:04:21;;;;;;;2.63;1.00;;;;;;;;;;4790274;29;20030;-64
2022/09/11 05:06:48;;;;;;;1.85;0.90;;;;;;;;;;4790424;30;20508;-64
2022/09/11 05:09:16;;;;;;;8.30;1.10;;;;;;;;;;4790455;29;20039;-64
2022/09/11 05:11:42;;;;;;;2.75;0.82;;;;;;;;;;4789944;30;20069;-64
2022/09/11 05:14:08;;;;;;;4.50;1.05;;;;;;;;;;4789817;30;20486;-64
2022/09/11 05:16:35;;;;;;;3.85;0.77;;;;;;;;;;4790168;30;20051;-64
2022/09/11 05:19:03;;;;;;;3.03;0.90;;;;;;;;;;4790206;29;20032;-64
2022/09/11 05:21:30;;;;;;;2.35;1.00;;;;;;;;;;4790086;30;20492;-63
2022/09/11 05:23:58;;;;;;;2.80;1.00;;;;;;;;;;4790414;30;20028;-63
2022/09/11 05:26:26;;;;;;;2.95;1.02;;;;;;;;;;4789545;30;20504;-63
2022/09/11 05:28:53;;;;;;;5.43;1.13;;;;;;;;;;4790184;30;20041;-64
2022/09/11 05:31:20;;;;;;;2.67;0.90;;;;;;;;;;4789920;29;20039;-64
2022/09/11 05:33:47;;;;;;;5.00;0.85;;;;;;;;;;4789738;30;20413;-64
2022/09/11 05:36:14;;;;;;;0.93;0.75;;;;;;;;;;4790106;30;20039;-64
2022/09/11 05:38:41;;;;;;;4.10;1.00;;;;;;;;;;4789614;29;20035;-66
2022/09/11 05:41:10;;;;;;;1.27;0.90;;;;;;;;;;4789163;29;20122;-64
2022/09/11 05:43:37;;;;;;;1.80;0.80;;;;;;;;;;4789532;30;20027;-62
2022/09/11 05:46:04;;;;;;;4.30;1.25;;;;;;;;;;4788766;29;20037;-65
2022/09/11 05:48:31;;;;;;;2.97;0.82;;;;;;;;;;4789402;30;20031;-63
2022/09/11 05:50:59;;;;;;;2.80;1.17;;;;;;;;;;4789490;30;20031;-65
2022/09/11 05:53:27;;;;;;;4.70;0.95;;;;;;;;;;4789653;30;20041;-66
2022/09/11 05:55:53;;;;;;;2.45;1.02;;;;;;;;;;4788979;29;20035;-64
2022/09/11 05:58:20;;;;;;;2.08;0.90;;;;;;;;;;4789324;30;20451;-64
2022/09/11 06:00:47;;;;;;;1.42;0.80;;;;;;;;;;4789301;29;20451;-62
2022/09/11 06:03:20;;;;;;;3.10;0.80;;;;;;;;;;4788015;30;20043;-64
2022/09/11 06:05:46;;;;;;;1.65;1.05;;;;;;;;;;4788836;29;20450;-64
2022/09/11 06:08:12;;;;;;;1.58;1.00;;;;;;;;;;4789393;29;20042;-64
2022/09/11 06:10:45;;;;;;;1.33;0.90;;;;;;;;;;4788265;29;20031;-63
2022/09/11 06:13:12;;;;;;;2.88;1.10;;;;;;;;;;4789016;30;20421;-64
2022/09/11 06:15:45;;;;;;;1.23;0.93;;;;;;;;;;4788976;30;20028;-63
2022/09/11 06:18:12;;;;;;;2.53;1.08;;;;;;;;;;4789188;30;20039;-64
2022/09/11 06:20:39;;;;;;;3.45;1.00;;;;;;;;;;4788957;30;20031;-64
2022/09/11 06:23:05;;;;;;;3.10;0.88;;;;;;;;;;4788896;29;20039;-64
2022/09/11 06:25:31;;;;;;;1.58;0.70;;;;;;;;;;4788819;30;20027;-64
2022/09/11 06:27:58;;;;;;;3.40;1.10;;;;;;;;;;4789240;29;20019;-63
2022/09/11 06:30:24;;;;;;;3.17;0.80;;;;;;;;;;4788735;30;20060;-64
2022/09/11 06:32:50;;;;;;;3.50;1.13;;;;;;;;;;4788743;30;20032;-64
2022/09/11 06:35:17;;;;;;;4.93;1.00;;;;;;;;;;4788967;30;20039;-64
2022/09/11 06:37:43;;;;;;;1.58;0.88;;;;;;;;;;4787287;30;20058;-64
2022/09/11 06:40:13;;;;;;;4.55;0.85;;;;;;;;;;4787110;29;20493;-64
2022/09/11 06:42:39;;;;;;;2.42;0.80;;;;;;;;;;4788836;30;20043;-63
2022/09/11 06:45:07;;;;;;;4.10;1.10;;;;;;;;;;4788523;30;20478;-64
2022/09/11 06:47:33;;;;;;;3.13;0.95;;;;;;;;;;4788743;29;20027;-64
2022/09/11 06:50:00;;;;;;;2.38;0.98;;;;;;;;;;4788495;29;20035;-64
2022/09/11 06:52:26;;;;;;;1.92;1.15;;;;;;;;;;4788502;29;20041;-64
2022/09/11 06:54:53;;;;;;;4.78;1.08;;;;;;;;;;4788315;29;20035;-64
2022/09/11 06:57:19;;;;;;;2.33;0.75;;;;;;;;;;4788248;30;20405;-64
2022/09/11 06:59:46;;;;;;;3.22;0.82;;;;;;;;;;4788544;29;20027;-64
2022/09/11 07:02:12;;;;;;;2.42;0.80;;;;;;;;;;4788076;30;20031;-64
2022/09/11 07:04:38;;;;;;;3.15;0.90;;;;;;;;;;4788011;29;20029;-64
2022/09/11 07:07:04;;;;;;;2.58;1.25;;;;;;;;;;4788189;29;20035;-64
2022/09/11 07:09:31;;;;;;;1.63;0.90;;;;;;;;;;4788096;30;20027;-64
2022/09/11 07:11:57;;;;;;;2.13;1.05;;;;;;;;;;4788018;30;20394;-64
2022/09/11 07:14:23;;;;;;;3.47;0.70;;;;;;;;;;4788050;30;20038;-64
2022/09/11 07:16:51;;;;;;;4.72;0.88;;;;;;;;;;4787960;30;20041;-64
2022/09/11 07:19:18;;;;;;;2.63;0.95;;;;;;;;;;4788485;29;20071;-64
2022/09/11 07:21:44;;;;;;;2.00;0.80;;;;;;;;;;4787706;29;20041;-65
2022/09/11 07:24:10;;;;;;;4.03;0.80;;;;;;;;;;4787663;29;20027;-64
2022/09/11 07:26:37;;;;;;;6.90;0.73;;;;;;;;;;4787959;30;20478;-64
2022/09/11 07:29:03;;;;;;;4.13;0.88;;;;;;;;;;4787990;30;20038;-64
2022/09/11 07:31:31;;;;;;;4.72;0.95;;;;;;;;;;4787701;30;20031;-64
2022/09/11 07:33:58;;;;;;;7.00;1.35;;;;;;;;;;4787667;30;20473;-64
2022/09/11 07:36:25;;;;;;;2.35;0.80;;;;;;;;;;4788123;30;20047;-64
2022/09/11 07:38:53;;;;;;;4.95;1.33;;;;;;;;;;4787243;30;20037;-64
2022/09/11 07:41:20;;;;;;;2.65;0.95;;;;;;;;;;4787926;30;20041;-64
2022/09/11 07:43:50;;;;;;;2.67;1.10;;;;;;;;;;4787613;30;20409;-64
2022/09/11 07:46:17;;;;;;;1.48;0.68;;;;;;;;;;4787587;29;20490;-64
2022/09/11 07:48:43;;;;;;;3.10;0.93;;;;;;;;;;4787520;30;20041;-64
2022/09/11 07:51:11;;;;;;;3.92;1.20;;;;;;;;;;4787319;29;20031;-64
2022/09/11 07:53:45;;;;;;;4.63;1.33;;;;;;;;;;4787277;30;20035;-64
2022/09/11 07:56:13;;;;;;;3.83;1.23;;;;;;;;;;4787417;30;20039;-65
2022/09/11 07:58:41;;;;;;;2.60;1.27;;;;;;;;;;4786257;29;20045;-65
2022/09/11 08:01:10;;;;;;;1.80;1.00;;;;;;;;;;4787233;30;20031;-64
2022/09/11 08:03:36;;;;;;;5.95;0.90;;;;;;;;;;4787301;30;20404;-64
2022/09/11 08:06:04;;;;;;;1.88;1.05;;;;;;;;;;4786967;29;20046;-65
2022/09/11 08:08:31;;;;;;;1.55;1.05;;;;;;;;;;4787256;29;20047;-65
2022/09/11 08:11:01;;;;;;;1.10;1.00;;;;;;;;;;4787080;30;20489;-65
2022/09/11 08:13:28;;;;;;;;;;;;;;;;;;4787532;29;20432;-65
2022/09/11 08:15:55;;;;;;;1.95;1.00;;;;;;;;;;4787758;29;19965;-65
2022/09/11 08:18:22;;;;;;;1.63;1.23;;;;;;;;;;4787047;29;20513;-65
2022/09/11 08:20:49;;;;;;;0.82;0.82;;;;;;;;;;4786940;30;20029;-65
2022/09/11 08:23:15;;;;;;;2.15;1.00;;;;;;;;;;4787085;30;20057;-65
2022/09/11 08:25:41;;;;;;;2.15;0.95;;;;;;;;;;4786943;30;20401;-65
2022/09/11 08:28:08;;;;;;;2.28;1.15;;;;;;;;;;4787037;30;20507;-65
2022/09/11 08:30:37;;;;;;;2.83;1.08;;;;;;;;;;4787182;29;20455;-65
2022/09/11 08:33:08;;;;;;;3.05;1.00;;;;;;;;;;4790806;29;20031;-65
2022/09/11 08:35:34;;;;;;;3.28;2.95;;;;;;;;;;4792867;30;20035;-65
2022/09/11 08:38:02;;;;;;;2.45;1.20;;;;;;;;;;4792901;30;20273;-65
2022/09/11 08:40:31;;;;;;;1.65;0.90;;;;;;;;;;4792830;30;20023;-65
2022/09/11 08:43:00;;;;;;;2.10;0.75;;;;;;;;;;4792816;30;20082;-65
2022/09/11 08:45:30;;;;;;;2.22;1.10;;;;;;;;;;4792937;30;20029;-65
2022/09/11 08:47:57;;;;;;;2.13;0.90;;;;;;;;;;4792820;30;20486;-65
2022/09/11 08:50:26;;;;;;;4.22;1.35;;;;;;;;;;4792593;30;20075;-65
2022/09/11 08:52:55;;;;;;;3.35;1.10;;;;;;;;;;4792801;30;20038;-65
2022/09/11 08:55:42;;;;;;;1.83;1.05;;;;;;;;;;4792731;29;20061;-65
2022/09/11 08:58:29;;;;;;;2.70;0.93;;;;;;;;;;4792501;29;20054;-66
2022/09/11 09:01:13;;;;;;;2.83;1.15;;;;;;;;;;4792957;30;20037;-65
2022/09/11 09:03:55;;;;;;;2.72;1.00;;;;;;;;;;4792587;30;20397;-65
2022/09/11 09:06:40;;;;;;;4.00;0.98;;;;;;;;;;4792370;29;20038;-66
2022/09/11 09:09:26;;;;;;;2.55;1.10;;;;;;;;;;4792912;30;20047;-65
2022/09/11 09:12:00;;;;;;;3.17;1.13;;;;;;;;;;4792591;30;20045;-65
2022/09/11 09:14:39;;;;;;;1.63;0.98;;;;;;;;;;4792719;29;20038;-65
2022/09/11 09:17:13;;;;;;;4.40;0.98;;;;;;;;;;4792479;30;20042;-65
2022/09/11 09:19:45;;;;;;;1.85;1.00;;;;;;;;;;4792282;30;20401;-65
2022/09/11 09:22:11;;;;;;;2.40;1.00;;;;;;;;;;4792443;29;20031;-65
2022/09/11 09:24:59;;;;;;;1.75;0.95;;;;;;;;;;4792679;30;20036;-65
2022/09/11 09:27:34;;;;;;;2.90;1.23;;;;;;;;;;4792823;30;20037;-65
2022/09/11 09:30:04;;;;;;;3.17;1.15;;;;;;;;;;4792480;29;20516;-65
2022/09/11 09:32:31;;;;;;;;;;;;;;;;;;4792826;29;20035;-66
2022/09/11 09:35:00;;;;;;;3.20;1.00;;;;;;;;;;4792192;29;20340;-65
2022/09/11 09:37:27;;;;;;;2.40;1.30;;;;;;;;;;4792476;30;20041;-65
2022/09/11 09:39:54;;;;;;;3.22;0.90;;;;;;;;;;4792604;30;20042;-65
2022/09/11 09:42:44;;;;;;;5.78;0.98;;;;;;;;;;4792172;30;20027;-65
2022/09/11 09:45:20;;;;;;;1.10;0.73;;;;;;;;;;4788650;29;20485;-65
2022/09/11 09:47:47;;;;;;;4.38;1.08;;;;;;;;;;4789257;30;20582;-66
2022/09/11 09:50:22;;;;;;;1.48;0.90;;;;;;;;;;4789677;30;20031;-65
2022/09/11 09:52:49;;;;;;;2.50;0.90;;;;;;;;;;4789466;30;20035;-65
2022/09/11 09:55:17;;;;;;;2.47;0.75;;;;;;;;;;4789546;29;20032;-65
2022/09/11 09:57:44;;;;;;;2.33;1.00;;;;;;;;;;4789221;30;20454;-65
2022/09/11 10:00:13;;;;;;;1.63;0.70;;;;;;;;;;4789727;30;20032;-65
2022/09/11 10:02:53;;;;;;;2.73;1.10;;;;;;;;;;4789045;30;20031;-65
2022/09/11 10:05:33;;;;;;;5.70;0.93;;;;;;;;;;4789109;29;20281;-65
2022/09/11 10:08:02;;;;;;;2.25;1.05;;;;;;;;;;4789260;30;20520;-65
2022/09/11 10:10:35;;;;;;;1.40;0.60;;;;;;;;;;4789111;30;20501;-65
2022/09/11 10:13:04;;;;;;;2.03;0.93;;;;;;;;;;4788995;30;20413;-65
2022/09/11 10:15:30;;;;;;;3.22;1.45;;;;;;;;;;4789109;29;20053;-65
2022/09/11 10:18:16;;;;;;;6.65;1.60;;;;;;;;;;4788701;29;20043;-65
2022/09/11 10:20:43;;;;;;;2.92;1.58;;;;;;;;;;4789017;29;20032;-65
2022/09/11 10:23:23;;;;;;;4.70;1.65;;;;;;;;;;4788977;30;20040;-65
2022/09/11 10:25:51;;;;;;;2.35;0.90;;;;;;;;;;4788913;29;20054;-65
2022/09/11 10:28:29;;;;;;;2.53;1.58;;;;;;;;;;4789157;30;20031;-65
2022/09/11 10:31:01;;;;;;;2.55;0.85;;;;;;;;;;4788591;29;20060;-64
2022/09/11 10:33:30;;;;;;;1.27;0.80;;;;;;;;;;4788746;30;20027;-65
2022/09/11 10:35:58;;;;;;;1.83;0.55;;;;;;;;;;4788681;29;20030;-65
2022/09/11 10:38:32;;;;;;;3.63;0.73;;;;;;;;;;4788732;30;20493;-64
2022/09/11 10:41:17;;;;;;;1.55;0.73;;;;;;;;;;4788557;30;20027;-65
2022/09/11 10:43:49;;;;;;;3.40;0.88;;;;;;;;;;4789036;30;20027;-65
2022/09/11 10:46:21;;;;;;;1.48;0.70;;;;;;;;;;4788217;30;20512;-65
2022/09/11 10:48:54;;;;;;;1.45;0.65;;;;;;;;;;4788595;29;20383;-65
2022/09/11 10:51:21;;;;;;;1.60;0.60;;;;;;;;;;4788437;29;20442;-65
2022/09/11 10:53:53;;;;;;;2.03;0.70;;;;;;;;;;4788652;30;20037;-65
2022/09/11 10:56:19;;;;;;;1.40;0.70;;;;;;;;;;4788035;29;20027;-65
2022/09/11 10:58:47;;;;;;;0.80;0.50;;;;;;;;;;4788468;30;20435;-65
2022/09/11 11:01:14;;;;;;;2.88;0.60;;;;;;;;;;4788281;30;20032;-65
2022/09/11 11:03:40;;;;;;;1.15;0.50;;;;;;;;;;4788538;30;20051;-65
2022/09/11 11:06:25;;;;;;;0.60;0.45;;;;;;;;;;4788179;29;20031;-65
2022/09/11 11:08:58;;;;;;;1.33;0.50;;;;;;;;;;4788131;30;20053;-65
2022/09/11 11:11:24;;;;;;;1.92;0.50;;;;;;;;;;4788051;29;20061;-65
2022/09/11 11:14:10;;;;;;;1.23;0.50;;;;;;;;;;4788173;30;20039;-65
2022/09/11 11:16:49;;;;;;;1.25;0.50;;;;;;;;;;4787726;30;20063;-65
2022/09/11 11:19:50;;;;;;;0.60;0.60;;;;;;;;;;4788057;29;20104;-65
2022/09/11 11:22:17;;;;;;;1.33;0.45;;;;;;;;;;4785918;29;20101;-65
2022/09/11 11:24:45;;;;;;;1.58;0.70;;;;;;;;;;4785947;30;20124;-65
2022/09/11 11:27:30;;;;;;;1.20;0.50;;;;;;;;;;4786069;30;20079;-65
2022/09/11 11:29:59;;;;;;;0.88;0.50;;;;;;;;;;4785320;30;20493;-64
2022/09/11 11:32:38;;;;;;;1.00;0.40;;;;;;;;;;4785767;30;20037;-64
2022/09/11 11:35:24;;;;;;;0.60;0.40;;;;;;;;;;4785586;30;20078;-65
2022/09/11 11:37:54;;;;;;;2.88;0.60;;;;;;;;;;4785481;30;20083;-65
2022/09/11 11:40:32;;;;;;;5.13;0.60;;;;;;;;;;4785640;30;20035;-64
2022/09/11 11:43:06;;;;;;;1.33;0.60;;;;;;;;;;4785361;30;20035;-64
2022/09/11 11:45:42;;;;;;;3.67;0.40;;;;;;;;;;4785107;30;20539;-65
2022/09/11 11:48:14;;;;;;;0.80;0.45;;;;;;;;;;4785383;30;20041;-64
2022/09/11 11:50:40;;;;;;;1.15;0.57;;;;;;;;;;4785495;30;20058;-65
2022/09/11 11:53:07;;;;;;;1.33;0.40;;;;;;;;;;4785159;30;20083;-65
2022/09/11 11:55:46;;;;;;;3.05;0.70;;;;;;;;;;4785780;30;20035;-65
2022/09/11 11:58:21;;;;;;;3.40;0.60;;;;;;;;;;4786972;30;20416;-65
2022/09/11 12:00:49;;;;;;;2.28;0.60;;;;;;;;;;4787368;30;20034;-65
2022/09/11 12:03:27;;;;;;;3.85;0.70;;;;;;;;;;4787575;29;20039;-65
2022/09/11 12:05:53;;;;;;;1.08;0.57;;;;;;;;;;4787046;29;20405;-65
2022/09/11 12:08:20;;;;;;;2.88;0.60;;;;;;;;;;4786560;29;20113;-65
2022/09/11 12:10:56;;;;;;;1.50;0.60;;;;;;;;;;4787067;29;20035;-65
2022/09/11 12:13:27;;;;;;;2.25;0.75;;;;;;;;;;4787163;30;20047;-65
2022/09/11 12:16:10;;;;;;;4.70;0.60;;;;;;;;;;4787188;29;20035;-65
2022/09/11 12:18:37;;;;;;;0.88;0.40;;;;;;;;;;4787320;30;20512;-64
2022/09/11 12:21:22;;;;;;;3.60;0.80;;;;;;;;;;4787044;30;20031;-65
2022/09/11 12:23:48;;;;;;;1.02;0.50;;;;;;;;;;4786986;30;20039;-66
2022/09/11 12:26:18;;;;;;;1.02;0.63;;;;;;;;;;4787236;30;20019;-65
2022/09/11 12:28:45;;;;;;;1.20;0.73;;;;;;;;;;4786756;29;20489;-65
2022/09/11 12:31:12;;;;;;;3.22;0.70;;;;;;;;;;4786876;29;20020;-65
2022/09/11 12:33:38;;;;;;;1.67;0.75;;;;;;;;;;4787095;30;20035;-65
2022/09/11 12:36:06;;;;;;;4.30;0.80;;;;;;;;;;4786906;30;20490;-65
2022/09/11 12:38:38;;;;;;;1.48;0.80;;;;;;;;;;4786975;30;20603;-65
2022/09/11 12:41:13;;;;;;;0.90;0.80;;;;;;;;;;4786786;29;20036;-65
2022/09/11 12:43:42;;;;;;;1.50;0.90;;;;;;;;;;4787228;29;20035;-66
2022/09/11 12:46:33;;;;;;;3.05;0.90;;;;;;;;;;4786969;29;20026;-66
2022/09/11 12:49:06;;;;;;;0.90;0.90;;;;;;;;;;4787013;30;20035;-65
2022/09/11 12:51:33;;;;;;;1.48;0.90;;;;;;;;;;4787094;30;20035;-65
2022/09/11 12:54:02;;;;;;;1.17;0.90;;;;;;;;;;4786838;29;20031;-63
2022/09/11 12:56:31;;;;;;;0.80;0.80;;;;;;;;;;4786539;29;20027;-64
2022/09/11 12:59:03;;;;;;;0.80;0.80;;;;;;;;;;4785939;30;20027;-66
2022/09/11 13:01:38;;;;;;;1.05;0.80;;;;;;;;;;4786870;30;20025;-66
2022/09/11 13:04:11;;;;;;;1.00;1.00;;;;;;;;;;4786703;29;20028;-64
2022/09/11 13:06:40;;;;;;;2.53;0.93;;;;;;;;;;4786060;29;20363;-65
2022/09/11 13:09:07;;;;;;;1.85;1.10;;;;;;;;;;4786894;29;20039;-65
2022/09/11 13:11:40;;;;;;;1.75;0.90;;;;;;;;;;4786130;29;20058;-66
2022/09/11 13:14:25;;;;;;;1.30;1.00;;;;;;;;;;4786723;30;20043;-65
2022/09/11 13:16:51;;;;;;;1.35;0.93;;;;;;;;;;4786725;30;20028;-65
2022/09/11 13:19:19;;;;;;;0.80;0.80;;;;;;;;;;4788795;29;20035;-66
2022/09/11 13:21:48;;;;;;;2.58;1.00;;;;;;;;;;4790166;29;20024;-65
2022/09/11 13:24:29;;;;;;;1.05;0.90;;;;;;;;;;4790167;29;20035;-65
2022/09/11 13:26:58;;;;;;;1.55;0.85;;;;;;;;;;4789578;30;20408;-65
2022/09/11 13:29:28;;;;;;;2.30;0.80;;;;;;;;;;4789914;30;20028;-66
2022/09/11 13:31:56;;;;;;;0.88;0.80;;;;;;;;;;4790315;30;20035;-65
2022/09/11 13:34:24;;;;;;;0.73;0.73;;;;;;;;;;4789839;29;20181;-65
2022/09/11 13:36:51;;;;;;;0.90;0.85;;;;;;;;;;4790175;30;20031;-65
2022/09/11 13:39:19;;;;;;;0.80;0.80;;;;;;;;;;4789374;30;20036;-65
2022/09/11 13:41:46;;;;;;;3.72;0.85;;;;;;;;;;4789967;29;20030;-66
2022/09/11 13:44:38;;;;;;;1.02;0.70;;;;;;;;;;4789534;29;20390;-65
2022/09/11 13:47:06;;;;;;;3.60;0.73;;;;;;;;;;4789697;29;20027;-66
2022/09/11 13:49:37;;;;;;;3.85;0.80;;;;;;;;;;4789770;29;20035;-65
2022/09/11 13:52:05;;;;;;;0.85;0.70;;;;;;;;;;4789602;30;20037;-66
2022/09/11 13:54:33;;;;;;;0.60;0.60;;;;;;;;;;4789115;29;20401;-65
2022/09/11 13:56:59;;;;;;;0.82;0.80;;;;;;;;;;4789316;29;20039;-65
2022/09/11 13:59:27;;;;;;;0.93;0.75;;;;;;;;;;4789389;29;20035;-65
2022/09/11 14:01:59;;;;;;;1.17;0.80;;;;;;;;;;4788380;29;20061;-65
2022/09/11 14:04:32;;;;;;;0.70;0.70;;;;;;;;;;4787752;29;20039;-65
2022/09/11 14:06:59;;;;;;;0.65;0.65;;;;;;;;;;4789248;29;20035;-65
2022/09/11 14:09:25;;;;;;;1.27;0.75;;;;;;;;;;4788884;30;20523;-65
2022/09/11 14:11:51;;;;;;;0.60;0.60;;;;;;;;;;4789234;30;20059;-65
2022/09/11 14:14:25;;;;;;;2.17;1.00;;;;;;;;;;4789116;30;20041;-65
2022/09/11 14:16:54;;;;;;;0.50;0.50;;;;;;;;;;4788935;29;20051;-66
2022/09/11 14:19:20;;;;;;;;;;;;;;;;;;4789528;29;20405;-65
2022/09/11 14:21:48;;;;;;;0.90;0.70;;;;;;;;;;4789253;30;19917;-65
2022/09/11 14:24:24;;;;;;;1.98;0.70;;;;;;;;;;4788769;30;20040;-66
2022/09/11 14:26:51;;;;;;;2.80;0.60;;;;;;;;;;4788956;30;20035;-65
2022/09/11 14:29:24;;;;;;;0.75;0.60;;;;;;;;;;4788735;29;20037;-65
2022/09/11 14:31:52;;;;;;;0.73;0.40;;;;;;;;;;4788326;29;20035;-65
2022/09/11 14:34:25;;;;;;;2.83;0.60;;;;;;;;;;4788880;29;20079;-65
2022/09/11 14:37:26;;;;;;;1.33;0.47;;;;;;;;;;4789023;30;20036;-65
2022/09/11 14:39:55;;;;;;;0.93;0.55;;;;;;;;;;4786705;30;20037;-65
2022/09/11 14:42:23;;;;;;;0.40;0.40;;;;;;;;;;4786616;30;20043;-64
2022/09/11 14:44:50;;;;;;;1.08;0.60;;;;;;;;;;4786489;30;20043;-66
2022/09/11 14:47:17;;;;;;;0.43;0.43;;;;;;;;;;4786867;30;20043;-65
2022/09/11 14:49:45;;;;;;;2.30;0.50;;;;;;;;;;4786270;30;20549;-65
2022/09/11 14:52:15;;;;;;;0.80;0.60;;;;;;;;;;4786126;30;20527;-65
2022/09/11 14:54:42;;;;;;;2.47;0.57;;;;;;;;;;4786391;30;20094;-65
2022/09/11 14:57:13;;;;;;;0.40;0.40;;;;;;;;;;4786197;30;20054;-65
2022/09/11 14:59:40;;;;;;;2.25;0.50;;;;;;;;;;4786328;30;20031;-65
2022/09/11 15:02:13;;;;;;;2.08;0.50;;;;;;;;;;4786271;30;20051;-65